Aeroporto :
LOGIN :

Iscrizione | Disclaimer

   EN    FR    IT 

 










Sommario :    VFR   VFR Marginale   IFR   IFR Intensivo   IFR Molto Intensivo
Visibilità : 
Base nubi : 
>= 8 km
>= 3000ft
5 / 8 km
1000 / 3000 ft
1500m / 5 km
500 / 1000 ft
800 / 1500m
200 / 500 ft
< 800m
< 200 ft
Simboli :   Temporali  Nebbia  Neve Forte  Precipitazioni Forti  Vento > 20 kt
SIGMETs :   Varie  Temporali  Ghiacco  Turbolenza  Onda orograficha  Ceneri Vulcaniche






- Altitudine del aeroporto : 502 ft
- Codice IATA : ORK


EICK - Cork

ULTIMO METAR :
  • 301800Z 02014KT 9999 FEW028 BKN040 08/01 Q1036 NOSIG

METARs OBSOLETI :
  • 301730Z 03015KT 9999 FEW028 BKN040 08/01 Q1036 NOSIG
  • 301700Z 03012KT 9999 SCT028 BKN040 08/01 Q1036 NOSIG
  • 301630Z 02013KT 9999 SCT028 BKN035 08/02 Q1037 NOSIG
  • 301600Z 02010KT 9999 SCT028 BKN035 08/02 Q1037 NOSIG

TAF TAF EICK
Valido dal 30 a 18 ore il 31 a 18 ore UTC


301700Z 3018/3118 02010KT 9999 SCT025 BKN035



MetMap, La meteo Aeronautica in un colpo d'occhio ! - Copyright ORBIFLY Dicembre 2007 - Disclaimer

ORBIFLY MET'MAP TEAM :

Programmazione e sviluppo : Alexandra Zaïnal
Concezione : Baudouin d'Aumeries
Aiuto per la programmazione : Marc-Olivier Méhu
Supporto tecnico e logistico : Manuel Goepfert
Aiuto per la traduzione : Arnaldo La Scala

Contatto : metmap@orbifly.com




FONTI E CREDITI :

   NOAA